Aérodrome :
LOGIN :

S'inscrire | Disclaimer

   EN    FR    IT 

 










Légende :    VFR   VFR Marginal   IFR   IFR Intensif   IFR Très Intensif
Visi : 
Plafond : 
>= 8 km
>= 3000ft
5 à 8 km
1000 à 3000 ft
1500m à 5 km
500 à 1000 ft
800 à 1500m
200 à 500 ft
< 800m
< 200 ft
Symboles :   Orages  Brouillard  Fortes neiges  Fortes précipitations  Vent > 20 kt
SIGMETs :   Divers  Orages  Givrage  Turbulence  Onde Orograph.  Cendres Volcan.






- Altitude de l'aérodrome : 124 ft
- Code IATA : AVN


LFMV - Avignon Caumont

DERNIER METAR :
  • 221030Z AUTO 36005KT 330V030 CAVOK 06/03 Q1031 NOSIG

METARs EXPIRÉS :
  • 221000Z AUTO 35006KT 9999 FEW068 SCT170 BKN230 06/03 Q1031 NOSIG
  • 220930Z AUTO 36007KT CAVOK 06/02 Q1030 NOSIG
  • 220900Z AUTO 35004KT 300V040 9999 FEW070 BKN120 05/02 Q1030 NOSIG
  • 220830Z AUTO 35007KT 9999 BKN076 OVC100 05/02 Q1030 NOSIG
  • 220800Z AUTO 01007KT 9999 SCT066 BKN076 OVC092 05/02 Q1030 TEMPO RA
  • 220730Z AUTO 36010KT 9999 -RA OVC068 04/02 Q1029 TEMPO RA

TAF TAF LFMV
Valide du 22 à 09h jusqu'au 23 à 09h UTC


220800Z 2209/2309 35010KT 9999 -RA BKN068 OVC076
TEMPO 2209/2309 35005KT
ATIS : +33 4 90 84 32 84



MET'MAP, la Météo Aéronautique d'un coup d'oeil ! - Copyright ORBIFLY Décembre 2007 - Disclaimer

ORBIFLY MET'MAP TEAM :

Programmation & Développement : Alexandra Zaïnal
Sur une idée originale de : Baudouin d'Aumeries
Assistance à la programmation : Marc-Olivier Méhu
Soutien technique & logistique : Manuel Goepfert

Contact : metmap@orbifly.com




SOURCES & CREDITS :

   NOAA